Terminal Aerodrome Forecast
Issued by NWS Kansas City/Pleasant Hill, MO

Home | Current Version | Previous Version | Text Only | Print | Product List | Glossary On
Versions: 1 2 3 4 5 6 7 8 9 10 11 12 13 14 15 16 17 18 19
000
FTUS43 KEAX 272300
TAFMCI
TAF
KMCI 272320Z 2800/2824 10010KT P6SM SCT150 BKN200
     FM280300 07008KT P6SM VCTS BKN040CB OVC080
     FM281400 19011KT P6SM SCT050 BKN130=

USA.gov is the U.S. government's official web portal to all federal, state and local government web resources and services.